Pagina principale
METAR-TAF:

METAR-TAF

Aeroporti :

Aeroporto di Karlsruhe-Baden-Baden

Baden-Baden, Germania

latitudine: 48-46-43N, longitudine: 008-04-47E, altezza: 124 m

Osservazione

Il bollettino è stato emesso 22 minuti fa, alle 12:50 UTC
Vento 13 kt da sud/sud-ovest
Temperature 10°C
Umidità 82%
Pressione 1007 hPa
Visibilità 10 km o più
Poco nuvoloso ad un'altezza di 3100 ft
Nubi sparse ad un'altezza di 3800 ft
Nuvoloso ad un'altezza di 4600 ft

METAR: EDSB 261250Z 20013KT 9999 FEW031 SCT038 BKN046 10/07 Q1007

Ora: 14:12 (13:12 UTC)

Previsione

Il bollettino è stato emesso 2 ore e 12 minuti fa, alle 11:00 UTC
Previsione valida dal 26 alle 12 UTC al 27 alle 12 UTC
Vento 13 kt da sud/sud-ovest
Visibilità 10 km o più
Nubi sparse ad un'altezza di 1500 ft
Nuvoloso ad un'altezza di 4000 ft
Evoluzione graduale
dal 26 alle 15 UTC al 26 alle 18 UTC
Vento 7 kt da sud/sud-ovest

TAF: EDSB 261100Z 2612/2712 20013KT 9999 SCT015 BKN040 BECMG 2615/2618 20007KT

Osservazioni e previsioni meteorologiche di più di 4000 aeroporti (messaggi METAR e TAF).

Le stazioni disponibili sono rappresentate dai dischi gialli e rossi sulla carta.

Puntare il mouse per vedere il nome della stazione.

Clicca sopra per visualizzare le osservazioni e previsioni meteorologiche.

Per cambiare la mappa : fare clic sui pulsanti verdi con una croce nera per ingrandire, il pulsante verde con un trattino per diminuire, o sulla freccia verde per le mappe adiacenti.


METAR-TAF: